sensor_id;sensor_type;location;lat;lon;timestamp;pressure;altitude;pressure_sealevel;temperature;humidity
55289;BME280;41154;45.394;5.734;2023-02-28T00:00:28;97037.09;;;0.89;100.00
55289;BME280;41154;45.394;5.734;2023-02-28T00:02:54;97035.16;;;0.98;100.00
55289;BME280;41154;45.394;5.734;2023-02-28T00:05:21;97042.59;;;1.10;100.00
55289;BME280;41154;45.394;5.734;2023-02-28T00:07:48;97048.63;;;1.25;100.00
55289;BME280;41154;45.394;5.734;2023-02-28T00:10:20;97049.47;;;1.11;100.00
55289;BME280;41154;45.394;5.734;2023-02-28T00:12:52;97044.00;;;1.12;100.00
55289;BME280;41154;45.394;5.734;2023-02-28T00:15:18;97040.44;;;1.20;100.00
55289;BME280;41154;45.394;5.734;2023-02-28T00:17:44;97044.28;;;0.96;100.00
55289;BME280;41154;45.394;5.734;2023-02-28T00:20:11;97049.13;;;0.92;100.00
55289;BME280;41154;45.394;5.734;2023-02-28T00:22:39;97044.84;;;0.91;100.00
55289;BME280;41154;45.394;5.734;2023-02-28T00:25:07;97052.41;;;1.16;100.00
55289;BME280;41154;45.394;5.734;2023-02-28T00:27:35;97047.97;;;1.23;100.00
55289;BME280;41154;45.394;5.734;2023-02-28T00:30:05;97055.13;;;1.07;100.00
55289;BME280;41154;45.394;5.734;2023-02-28T00:32:31;97045.72;;;1.20;100.00
55289;BME280;41154;45.394;5.734;2023-02-28T00:34:57;97039.56;;;1.13;100.00
55289;BME280;41154;45.394;5.734;2023-02-28T00:37:23;97049.09;;;1.14;100.00
55289;BME280;41154;45.394;5.734;2023-02-28T00:39:49;97051.00;;;0.98;100.00
55289;BME280;41154;45.394;5.734;2023-02-28T00:42:15;97046.78;;;1.25;100.00
55289;BME280;41154;45.394;5.734;2023-02-28T00:44:40;97044.38;;;1.09;100.00
55289;BME280;41154;45.394;5.734;2023-02-28T00:47:06;97047.72;;;0.96;100.00
55289;BME280;41154;45.394;5.734;2023-02-28T00:49:33;97046.72;;;0.97;100.00
55289;BME280;41154;45.394;5.734;2023-02-28T00:52:02;97043.97;;;1.05;100.00
55289;BME280;41154;45.394;5.734;2023-02-28T00:54:28;97046.84;;;0.89;100.00
55289;BME280;41154;45.394;5.734;2023-02-28T00:56:54;97059.03;;;0.90;100.00
55289;BME280;41154;45.394;5.734;2023-02-28T00:59:22;97055.78;;;0.88;100.00
55289;BME280;41154;45.394;5.734;2023-02-28T01:01:51;97054.78;;;0.89;100.00
55289;BME280;41154;45.394;5.734;2023-02-28T01:04:19;97051.25;;;1.03;100.00
55289;BME280;41154;45.394;5.734;2023-02-28T01:06:46;97056.22;;;1.13;100.00
55289;BME280;41154;45.394;5.734;2023-02-28T01:09:13;97047.16;;;1.01;100.00
55289;BME280;41154;45.394;5.734;2023-02-28T01:11:42;97050.44;;;1.24;100.00
55289;BME280;41154;45.394;5.734;2023-02-28T01:14:15;97045.47;;;1.15;100.00
55289;BME280;41154;45.394;5.734;2023-02-28T01:16:43;97042.81;;;0.93;100.00
55289;BME280;41154;45.394;5.734;2023-02-28T01:19:11;97058.19;;;1.04;100.00
55289;BME280;41154;45.394;5.734;2023-02-28T01:21:39;97056.28;;;1.20;100.00
55289;BME280;41154;45.394;5.734;2023-02-28T01:24:13;97060.31;;;0.94;100.00
55289;BME280;41154;45.394;5.734;2023-02-28T01:26:40;97055.41;;;1.13;100.00
55289;BME280;41154;45.394;5.734;2023-02-28T01:29:07;97052.56;;;0.93;100.00
55289;BME280;41154;45.394;5.734;2023-02-28T01:31:34;97050.38;;;1.18;100.00
55289;BME280;41154;45.394;5.734;2023-02-28T01:34:02;97053.16;;;1.10;100.00
55289;BME280;41154;45.394;5.734;2023-02-28T01:36:29;97052.00;;;0.97;100.00
55289;BME280;41154;45.394;5.734;2023-02-28T01:38:55;97048.25;;;1.06;100.00
55289;BME280;41154;45.394;5.734;2023-02-28T01:41:30;97041.25;;;1.20;100.00
55289;BME280;41154;45.394;5.734;2023-02-28T01:44:04;97049.47;;;1.11;100.00
55289;BME280;41154;45.394;5.734;2023-02-28T01:46:34;97051.75;;;1.14;100.00
55289;BME280;41154;45.394;5.734;2023-02-28T01:49:08;97048.00;;;1.01;100.00
55289;BME280;41154;45.394;5.734;2023-02-28T01:52:12;97045.28;;;1.16;100.00
55289;BME280;41154;45.394;5.734;2023-02-28T01:54:31;97042.97;;;1.28;100.00
55289;BME280;41154;45.394;5.734;2023-02-28T01:57:12;97041.38;;;1.34;100.00
55289;BME280;41154;45.394;5.734;2023-02-28T01:59:54;97049.75;;;1.16;100.00
55289;BME280;41154;45.394;5.734;2023-02-28T02:02:24;97046.75;;;1.19;100.00
55289;BME280;41154;45.394;5.734;2023-02-28T02:04:54;97051.44;;;1.02;100.00
55289;BME280;41154;45.394;5.734;2023-02-28T02:07:21;97044.34;;;1.02;100.00
55289;BME280;41154;45.394;5.734;2023-02-28T02:09:47;97046.59;;;1.05;100.00
55289;BME280;41154;45.394;5.734;2023-02-28T02:15:06;97038.44;;;1.00;100.00
55289;BME280;41154;45.394;5.734;2023-02-28T02:17:46;97041.94;;;1.07;100.00
55289;BME280;41154;45.394;5.734;2023-02-28T02:28:56;97045.03;;;0.89;100.00
55289;BME280;41154;45.394;5.734;2023-02-28T02:34:40;97042.59;;;0.73;100.00
55289;BME280;41154;45.394;5.734;2023-02-28T02:42:47;97046.84;;;0.89;100.00
55289;BME280;41154;45.394;5.734;2023-02-28T02:47:53;97040.31;;;0.85;100.00
55289;BME280;41154;45.394;5.734;2023-02-28T02:50:30;97043.97;;;1.05;100.00
55289;BME280;41154;45.394;5.734;2023-02-28T02:53:01;97056.16;;;1.06;100.00
55289;BME280;41154;45.394;5.734;2023-02-28T02:55:31;97049.59;;;0.81;100.00
55289;BME280;41154;45.394;5.734;2023-02-28T02:58:07;97056.09;;;0.63;100.00
55289;BME280;41154;45.394;5.734;2023-02-28T03:00:41;97055.78;;;0.88;100.00
55289;BME280;41154;45.394;5.734;2023-02-28T03:03:10;97045.03;;;0.89;100.00
55289;BME280;41154;45.394;5.734;2023-02-28T03:05:49;97043.56;;;0.87;100.00
55289;BME280;41154;45.394;5.734;2023-02-28T03:08:16;97037.41;;;0.80;100.00
55289;BME280;41154;45.394;5.734;2023-02-28T03:10:44;97031.66;;;0.76;100.00
55289;BME280;41154;45.394;5.734;2023-02-28T03:16:19;97034.13;;;0.78;100.00
55289;BME280;41154;45.394;5.734;2023-02-28T03:19:17;97025.88;;;0.66;100.00
55289;BME280;41154;45.394;5.734;2023-02-28T03:27:40;97034.00;;;0.64;100.00
55289;BME280;41154;45.394;5.734;2023-02-28T03:30:24;97033.03;;;0.35;100.00
55289;BME280;41154;45.394;5.734;2023-02-28T03:32:58;97034.38;;;0.46;100.00
55289;BME280;41154;45.394;5.734;2023-02-28T03:35:37;97040.50;;;0.17;100.00
55289;BME280;41154;45.394;5.734;2023-02-28T03:38:16;97030.69;;;0.11;100.00
55289;BME280;41154;45.394;5.734;2023-02-28T03:40:48;97036.25;;;0.01;100.00
55289;BME280;41154;45.394;5.734;2023-02-28T03:43:21;97036.69;;;0.05;100.00
55289;BME280;41154;45.394;5.734;2023-02-28T03:45:49;97044.53;;;0.13;100.00
55289;BME280;41154;45.394;5.734;2023-02-28T03:48:23;97052.25;;;0.14;100.00
55289;BME280;41154;45.394;5.734;2023-02-28T03:50:55;97051.63;;;-0.03;100.00
55289;BME280;41154;45.394;5.734;2023-02-28T03:53:29;97054.59;;;0.09;100.00
55289;BME280;41154;45.394;5.734;2023-02-28T03:56:17;97061.44;;;0.04;100.00
55289;BME280;41154;45.394;5.734;2023-02-28T03:58:57;97056.25;;;0.10;100.00
55289;BME280;41154;45.394;5.734;2023-02-28T04:06:22;97086.88;;;-0.04;100.00
55289;BME280;41154;45.394;5.734;2023-02-28T04:08:48;97079.88;;;-0.11;100.00
55289;BME280;41154;45.394;5.734;2023-02-28T04:13:42;97089.25;;;0.06;100.00
55289;BME280;41154;45.394;5.734;2023-02-28T04:16:09;97092.19;;;0.11;100.00
55289;BME280;41154;45.394;5.734;2023-02-28T04:18:38;97097.28;;;0.13;100.00
55289;BME280;41154;45.394;5.734;2023-02-28T04:21:06;97098.28;;;0.12;100.00
55289;BME280;41154;45.394;5.734;2023-02-28T04:23:32;97097.81;;;0.08;100.00
55289;BME280;41154;45.394;5.734;2023-02-28T04:25:58;97100.34;;;0.02;100.00
55289;BME280;41154;45.394;5.734;2023-02-28T04:28:24;97096.34;;;0.06;100.00
55289;BME280;41154;45.394;5.734;2023-02-28T04:31:01;97089.78;;;0.02;100.00
55289;BME280;41154;45.394;5.734;2023-02-28T04:33:27;97093.09;;;0.04;100.00
55289;BME280;41154;45.394;5.734;2023-02-28T04:36:04;97097.81;;;-0.07;100.00
55289;BME280;41154;45.394;5.734;2023-02-28T04:38:35;97088.53;;;-0.03;100.00
55289;BME280;41154;45.394;5.734;2023-02-28T04:41:01;97087.91;;;-0.05;100.00
55289;BME280;41154;45.394;5.734;2023-02-28T04:43:28;97097.44;;;-0.04;100.00
55289;BME280;41154;45.394;5.734;2023-02-28T04:45:55;97091.44;;;-0.12;100.00
55289;BME280;41154;45.394;5.734;2023-02-28T04:48:27;97093.97;;;-0.19;100.00
55289;BME280;41154;45.394;5.734;2023-02-28T04:50:53;97100.53;;;-0.15;100.00
55289;BME280;41154;45.394;5.734;2023-02-28T04:53:19;97095.66;;;-0.41;100.00
55289;BME280;41154;45.394;5.734;2023-02-28T04:55:45;97097.78;;;-0.22;100.00
55289;BME280;41154;45.394;5.734;2023-02-28T04:58:12;97099.22;;;-0.19;100.00
55289;BME280;41154;45.394;5.734;2023-02-28T05:00:38;97101.59;;;-0.24;100.00
55289;BME280;41154;45.394;5.734;2023-02-28T05:03:06;97106.41;;;-0.28;100.00
55289;BME280;41154;45.394;5.734;2023-02-28T05:05:32;97103.59;;;-0.26;100.00
55289;BME280;41154;45.394;5.734;2023-02-28T05:07:58;97106.88;;;-0.24;100.00
55289;BME280;41154;45.394;5.734;2023-02-28T05:10:23;97102.84;;;-0.35;100.00
55289;BME280;41154;45.394;5.734;2023-02-28T05:12:49;97106.28;;;-0.34;100.00
55289;BME280;41154;45.394;5.734;2023-02-28T05:15:16;97110.75;;;-0.35;100.00
55289;BME280;41154;45.394;5.734;2023-02-28T05:17:42;97118.03;;;-0.37;100.00
55289;BME280;41154;45.394;5.734;2023-02-28T05:20:09;97115.56;;;-0.39;100.00
55289;BME280;41154;45.394;5.734;2023-02-28T05:22:39;97123.47;;;-0.39;100.00
55289;BME280;41154;45.394;5.734;2023-02-28T05:25:06;97118.59;;;-0.50;100.00
55289;BME280;41154;45.394;5.734;2023-02-28T05:27:32;97134.19;;;-0.40;100.00
55289;BME280;41154;45.394;5.734;2023-02-28T05:29:58;97131.84;;;-0.35;100.00
55289;BME280;41154;45.394;5.734;2023-02-28T05:32:24;97130.31;;;-0.29;100.00
55289;BME280;41154;45.394;5.734;2023-02-28T05:34:51;97141.66;;;-0.29;100.00
55289;BME280;41154;45.394;5.734;2023-02-28T05:37:20;97129.03;;;-0.33;100.00
55289;BME280;41154;45.394;5.734;2023-02-28T05:39:47;97132.13;;;-0.30;100.00
55289;BME280;41154;45.394;5.734;2023-02-28T05:42:13;97124.56;;;-0.33;100.00
55289;BME280;41154;45.394;5.734;2023-02-28T05:44:42;97133.59;;;-0.27;100.00
55289;BME280;41154;45.394;5.734;2023-02-28T05:47:08;97132.47;;;-0.33;100.00
55289;BME280;41154;45.394;5.734;2023-02-28T05:49:33;97132.78;;;-0.28;100.00
55289;BME280;41154;45.394;5.734;2023-02-28T05:52:00;97140.50;;;-0.26;100.00
55289;BME280;41154;45.394;5.734;2023-02-28T05:54:25;97137.56;;;-0.31;100.00
55289;BME280;41154;45.394;5.734;2023-02-28T05:56:51;97134.75;;;-0.30;100.00
55289;BME280;41154;45.394;5.734;2023-02-28T05:59:17;97136.75;;;-0.32;100.00
55289;BME280;41154;45.394;5.734;2023-02-28T06:01:44;97136.94;;;-0.33;100.00
55289;BME280;41154;45.394;5.734;2023-02-28T06:04:15;97137.34;;;-0.22;100.00
55289;BME280;41154;45.394;5.734;2023-02-28T06:06:44;97138.59;;;-0.17;100.00
55289;BME280;41154;45.394;5.734;2023-02-28T06:09:10;97135.59;;;-0.14;100.00
55289;BME280;41154;45.394;5.734;2023-02-28T06:11:37;97130.81;;;-0.11;100.00
55289;BME280;41154;45.394;5.734;2023-02-28T06:14:03;97138.59;;;-0.17;100.00
55289;BME280;41154;45.394;5.734;2023-02-28T06:16:31;97145.41;;;-0.23;100.00
55289;BME280;41154;45.394;5.734;2023-02-28T06:18:58;97147.97;;;-0.15;100.00
55289;BME280;41154;45.394;5.734;2023-02-28T06:21:24;97150.34;;;-0.05;100.00
55289;BME280;41154;45.394;5.734;2023-02-28T06:23:51;97155.81;;;-0.07;100.00
55289;BME280;41154;45.394;5.734;2023-02-28T06:26:17;97149.97;;;-0.17;100.00
55289;BME280;41154;45.394;5.734;2023-02-28T06:28:42;97143.78;;;-0.24;100.00
55289;BME280;41154;45.394;5.734;2023-02-28T06:31:10;97157.53;;;-0.14;100.00
55289;BME280;41154;45.394;5.734;2023-02-28T06:33:37;97166.47;;;0.00;100.00
55289;BME280;41154;45.394;5.734;2023-02-28T06:36:04;97160.19;;;0.01;100.00
55289;BME280;41154;45.394;5.734;2023-02-28T06:38:30;97157.09;;;-0.03;100.00
55289;BME280;41154;45.394;5.734;2023-02-28T06:41:00;97162.19;;;-0.01;100.00
55289;BME280;41154;45.394;5.734;2023-02-28T06:43:30;97155.53;;;0.03;100.00
55289;BME280;41154;45.394;5.734;2023-02-28T06:45:59;97155.44;;;-0.04;100.00
55289;BME280;41154;45.394;5.734;2023-02-28T06:48:27;97157.00;;;0.06;100.00
55289;BME280;41154;45.394;5.734;2023-02-28T06:51:11;97157.28;;;0.11;100.00
55289;BME280;41154;45.394;5.734;2023-02-28T06:53:42;97160.28;;;0.08;100.00
55289;BME280;41154;45.394;5.734;2023-02-28T06:56:11;97160.69;;;0.20;100.00
55289;BME280;41154;45.394;5.734;2023-02-28T06:58:37;97159.22;;;0.17;100.00
55289;BME280;41154;45.394;5.734;2023-02-28T07:01:08;97161.56;;;0.12;100.00
55289;BME280;41154;45.394;5.734;2023-02-28T07:03:35;97167.84;;;0.11;100.00
55289;BME280;41154;45.394;5.734;2023-02-28T07:06:01;97171.00;;;-0.09;100.00
55289;BME280;41154;45.394;5.734;2023-02-28T07:08:28;97170.94;;;-0.24;100.00
55289;BME280;41154;45.394;5.734;2023-02-28T07:10:56;97183.56;;;-0.34;100.00
55289;BME280;41154;45.394;5.734;2023-02-28T07:13:25;97178.81;;;-0.39;100.00
55289;BME280;41154;45.394;5.734;2023-02-28T07:16:02;97183.13;;;-0.46;100.00
55289;BME280;41154;45.394;5.734;2023-02-28T07:18:28;97184.44;;;-0.42;100.00
55289;BME280;41154;45.394;5.734;2023-02-28T07:20:55;97183.91;;;-0.14;100.00
55289;BME280;41154;45.394;5.734;2023-02-28T07:23:22;97192.00;;;-0.15;100.00
55289;BME280;41154;45.394;5.734;2023-02-28T07:25:49;97198.94;;;0.01;100.00
55289;BME280;41154;45.394;5.734;2023-02-28T07:28:16;97192.13;;;0.06;100.00
55289;BME280;41154;45.394;5.734;2023-02-28T07:30:42;97189.81;;;0.41;100.00
55289;BME280;41154;45.394;5.734;2023-02-28T07:33:08;97193.84;;;0.14;100.00
55289;BME280;41154;45.394;5.734;2023-02-28T07:35:34;97196.94;;;0.03;100.00
55289;BME280;41154;45.394;5.734;2023-02-28T07:38:00;97200.72;;;0.38;100.00
55289;BME280;41154;45.394;5.734;2023-02-28T07:40:26;97206.81;;;0.39;100.00
55289;BME280;41154;45.394;5.734;2023-02-28T07:42:52;97214.88;;;-0.16;100.00
55289;BME280;41154;45.394;5.734;2023-02-28T07:45:18;97201.06;;;-0.18;100.00
55289;BME280;41154;45.394;5.734;2023-02-28T07:47:45;97203.63;;;-0.10;100.00
55289;BME280;41154;45.394;5.734;2023-02-28T07:50:13;97206.94;;;-0.08;100.00
55289;BME280;41154;45.394;5.734;2023-02-28T07:52:39;97207.16;;;-0.17;100.00
55289;BME280;41154;45.394;5.734;2023-02-28T07:55:07;97205.78;;;0.10;100.00
55289;BME280;41154;45.394;5.734;2023-02-28T07:57:34;97202.13;;;0.11;100.00
55289;BME280;41154;45.394;5.734;2023-02-28T07:59:59;97200.63;;;-0.07;100.00
55289;BME280;41154;45.394;5.734;2023-02-28T08:02:25;97204.28;;;-0.08;100.00
55289;BME280;41154;45.394;5.734;2023-02-28T08:04:51;97196.81;;;0.34;100.00
55289;BME280;41154;45.394;5.734;2023-02-28T08:07:17;97186.81;;;0.59;100.00
55289;BME280;41154;45.394;5.734;2023-02-28T08:09:45;97199.88;;;0.23;100.00
55289;BME280;41154;45.394;5.734;2023-02-28T08:12:11;97192.28;;;0.73;100.00
55289;BME280;41154;45.394;5.734;2023-02-28T08:14:37;97193.38;;;0.78;100.00
55289;BME280;41154;45.394;5.734;2023-02-28T08:17:04;97191.56;;;0.79;100.00
55289;BME280;41154;45.394;5.734;2023-02-28T08:19:30;97200.41;;;1.59;100.00
55289;BME280;41154;45.394;5.734;2023-02-28T08:21:56;97191.09;;;1.85;98.42
55289;BME280;41154;45.394;5.734;2023-02-28T08:24:22;97193.94;;;2.33;96.42
55289;BME280;41154;45.394;5.734;2023-02-28T08:26:49;97189.34;;;1.92;97.52
55289;BME280;41154;45.394;5.734;2023-02-28T08:29:15;97190.47;;;2.04;99.83
55289;BME280;41154;45.394;5.734;2023-02-28T08:31:44;97193.75;;;2.34;96.15
55289;BME280;41154;45.394;5.734;2023-02-28T08:34:13;97194.03;;;2.46;96.33
55289;BME280;41154;45.394;5.734;2023-02-28T08:36:39;97196.31;;;3.39;90.93
55289;BME280;41154;45.394;5.734;2023-02-28T08:39:05;97193.09;;;3.64;89.27
55289;BME280;41154;45.394;5.734;2023-02-28T08:41:34;97193.59;;;2.43;94.89
55289;BME280;41154;45.394;5.734;2023-02-28T08:43:59;97197.34;;;2.55;94.30
55289;BME280;41154;45.394;5.734;2023-02-28T08:46:25;97191.31;;;3.10;94.00
55289;BME280;41154;45.394;5.734;2023-02-28T08:48:56;97194.25;;;2.86;95.09
55289;BME280;41154;45.394;5.734;2023-02-28T08:51:25;97197.53;;;2.88;94.06
55289;BME280;41154;45.394;5.734;2023-02-28T08:53:56;97196.81;;;3.83;90.96
55289;BME280;41154;45.394;5.734;2023-02-28T08:56:28;97192.13;;;3.99;89.11
55289;BME280;41154;45.394;5.734;2023-02-28T08:59:04;97198.41;;;3.51;92.81
55289;BME280;41154;45.394;5.734;2023-02-28T09:01:30;97206.41;;;3.84;90.38
55289;BME280;41154;45.394;5.734;2023-02-28T09:03:58;97207.66;;;3.88;89.86
55289;BME280;41154;45.394;5.734;2023-02-28T09:06:25;97206.47;;;3.29;90.48
55289;BME280;41154;45.394;5.734;2023-02-28T09:08:52;97209.56;;;3.39;92.16
55289;BME280;41154;45.394;5.734;2023-02-28T09:11:29;97208.56;;;2.92;94.18
55289;BME280;41154;45.394;5.734;2023-02-28T09:13:55;97203.44;;;3.32;92.72
55289;BME280;41154;45.394;5.734;2023-02-28T09:16:23;97207.09;;;2.90;94.51
55289;BME280;41154;45.394;5.734;2023-02-28T09:18:48;97204.47;;;2.90;96.08
55289;BME280;41154;45.394;5.734;2023-02-28T09:21:16;97206.72;;;2.58;97.47
55289;BME280;41154;45.394;5.734;2023-02-28T09:23:45;97199.53;;;2.80;96.70
55289;BME280;41154;45.394;5.734;2023-02-28T09:26:19;97206.16;;;3.52;93.13
55289;BME280;41154;45.394;5.734;2023-02-28T09:28:48;97202.56;;;3.87;91.28
55289;BME280;41154;45.394;5.734;2023-02-28T09:31:19;97216.53;;;3.47;92.53
55289;BME280;41154;45.394;5.734;2023-02-28T09:33:49;97222.94;;;3.66;92.58
55289;BME280;41154;45.394;5.734;2023-02-28T09:36:15;97227.63;;;3.77;90.48
55289;BME280;41154;45.394;5.734;2023-02-28T09:38:41;97224.81;;;4.39;88.53
55289;BME280;41154;45.394;5.734;2023-02-28T09:41:31;97219.72;;;4.38;88.94
55289;BME280;41154;45.394;5.734;2023-02-28T09:44:04;97220.94;;;4.28;89.24
55289;BME280;41154;45.394;5.734;2023-02-28T09:46:45;97227.41;;;3.66;89.66
55289;BME280;41154;45.394;5.734;2023-02-28T09:49:16;97233.75;;;3.71;90.81
55289;BME280;41154;45.394;5.734;2023-02-28T09:54:15;97232.44;;;3.47;92.33
55289;BME280;41154;45.394;5.734;2023-02-28T09:56:49;97233.78;;;4.05;89.02
55289;BME280;41154;45.394;5.734;2023-02-28T10:05:02;97236.25;;;3.31;90.83
55289;BME280;41154;45.394;5.734;2023-02-28T10:08:00;97231.91;;;3.10;91.68
55289;BME280;41154;45.394;5.734;2023-02-28T10:10:43;97239.00;;;2.18;96.66
55289;BME280;41154;45.394;5.734;2023-02-28T10:13:22;97234.22;;;2.28;97.28
55289;BME280;41154;45.394;5.734;2023-02-28T10:15:54;97239.44;;;2.43;96.36
55289;BME280;41154;45.394;5.734;2023-02-28T10:21:42;97241.78;;;2.10;97.46
55289;BME280;41154;45.394;5.734;2023-02-28T10:26:57;97260.84;;;2.48;97.17
55289;BME280;41154;45.394;5.734;2023-02-28T10:29:25;97253.00;;;2.62;95.60
55289;BME280;41154;45.394;5.734;2023-02-28T10:31:51;97238.97;;;2.68;96.14
55289;BME280;41154;45.394;5.734;2023-02-28T10:34:17;97244.22;;;2.33;96.46
55289;BME280;41154;45.394;5.734;2023-02-28T10:36:43;97246.00;;;2.82;94.66
55289;BME280;41154;45.394;5.734;2023-02-28T10:39:35;97254.28;;;3.01;94.81
55289;BME280;41154;45.394;5.734;2023-02-28T10:42:03;97254.91;;;3.10;93.04
55289;BME280;41154;45.394;5.734;2023-02-28T10:44:29;97261.41;;;2.72;95.33
55289;BME280;41154;45.394;5.734;2023-02-28T10:46:55;97265.16;;;2.84;95.56
55289;BME280;41154;45.394;5.734;2023-02-28T10:49:27;97267.88;;;3.33;93.28
55289;BME280;41154;45.394;5.734;2023-02-28T10:51:59;97269.19;;;3.09;94.84
55289;BME280;41154;45.394;5.734;2023-02-28T10:54:34;97265.59;;;2.88;95.07
55289;BME280;41154;45.394;5.734;2023-02-28T10:57:19;97264.94;;;3.14;94.68
55289;BME280;41154;45.394;5.734;2023-02-28T10:59:45;97261.97;;;2.96;94.05
55289;BME280;41154;45.394;5.734;2023-02-28T11:02:34;97259.00;;;3.60;91.64
55289;BME280;41154;45.394;5.734;2023-02-28T11:05:02;97255.63;;;3.32;93.62
55289;BME280;41154;45.394;5.734;2023-02-28T11:07:28;97257.75;;;3.50;92.73
55289;BME280;41154;45.394;5.734;2023-02-28T11:09:56;97258.47;;;2.88;94.60
55289;BME280;41154;45.394;5.734;2023-02-28T11:12:30;97256.72;;;2.74;96.11
55289;BME280;41154;45.394;5.734;2023-02-28T11:15:22;97261.75;;;3.32;93.02
55289;BME280;41154;45.394;5.734;2023-02-28T11:18:19;97251.19;;;3.46;93.12
55289;BME280;41154;45.394;5.734;2023-02-28T11:20:50;97252.25;;;3.03;93.92
55289;BME280;41154;45.394;5.734;2023-02-28T11:23:18;97249.66;;;3.71;92.45
55289;BME280;41154;45.394;5.734;2023-02-28T11:25:51;97249.59;;;3.51;91.07
55289;BME280;41154;45.394;5.734;2023-02-28T11:28:27;97239.06;;;3.78;91.32
55289;BME280;41154;45.394;5.734;2023-02-28T11:31:05;97230.78;;;3.39;92.72
55289;BME280;41154;45.394;5.734;2023-02-28T11:36:11;97233.88;;;3.50;92.60
55289;BME280;41154;45.394;5.734;2023-02-28T11:38:37;97228.69;;;3.28;91.48
55289;BME280;41154;45.394;5.734;2023-02-28T11:41:19;97233.66;;;2.68;95.49
55289;BME280;41154;45.394;5.734;2023-02-28T11:49:49;97215.44;;;4.37;89.29
55289;BME280;41154;45.394;5.734;2023-02-28T11:53:40;97212.97;;;4.02;91.06
55289;BME280;41154;45.394;5.734;2023-02-28T11:55:42;97201.50;;;3.88;92.43
55289;BME280;41154;45.394;5.734;2023-02-28T12:01:05;97209.69;;;4.06;90.01
55289;BME280;41154;45.394;5.734;2023-02-28T12:09:11;97208.91;;;4.06;90.11
55289;BME280;41154;45.394;5.734;2023-02-28T12:12:05;97207.78;;;3.53;92.65
55289;BME280;41154;45.394;5.734;2023-02-28T12:17:28;97205.78;;;3.69;92.18
55289;BME280;41154;45.394;5.734;2023-02-28T12:28:46;97182.31;;;4.66;87.33
55289;BME280;41154;45.394;5.734;2023-02-28T12:31:20;97175.91;;;4.87;86.90
55289;BME280;41154;45.394;5.734;2023-02-28T12:33:51;97186.63;;;4.13;88.55
55289;BME280;41154;45.394;5.734;2023-02-28T12:36:20;97178.44;;;3.68;90.92
55289;BME280;41154;45.394;5.734;2023-02-28T12:38:51;97180.13;;;4.16;89.71
55289;BME280;41154;45.394;5.734;2023-02-28T12:44:40;97175.59;;;4.23;87.72
55289;BME280;41154;45.394;5.734;2023-02-28T12:47:14;97171.22;;;3.35;91.04
55289;BME280;41154;45.394;5.734;2023-02-28T12:49:53;97174.06;;;3.34;92.40
55289;BME280;41154;45.394;5.734;2023-02-28T12:52:48;97183.75;;;4.02;91.58
55289;BME280;41154;45.394;5.734;2023-02-28T12:55:33;97176.66;;;4.02;88.64
55289;BME280;41154;45.394;5.734;2023-02-28T12:58:34;97169.47;;;3.89;90.71
55289;BME280;41154;45.394;5.734;2023-02-28T13:04:19;97177.34;;;3.42;92.20
55289;BME280;41154;45.394;5.734;2023-02-28T13:09:17;97171.97;;;3.16;93.63
55289;BME280;41154;45.394;5.734;2023-02-28T13:11:48;97176.94;;;3.39;93.65
55289;BME280;41154;45.394;5.734;2023-02-28T13:14:26;97166.81;;;3.89;91.53
55289;BME280;41154;45.394;5.734;2023-02-28T13:16:59;97176.16;;;2.97;94.40
55289;BME280;41154;45.394;5.734;2023-02-28T13:19:28;97180.63;;;3.51;92.85
55289;BME280;41154;45.394;5.734;2023-02-28T13:21:55;97179.69;;;3.04;94.02
55289;BME280;41154;45.394;5.734;2023-02-28T13:24:44;97174.31;;;2.91;94.51
55289;BME280;41154;45.394;5.734;2023-02-28T13:27:21;97179.44;;;3.67;92.77
55289;BME280;41154;45.394;5.734;2023-02-28T13:29:51;97169.47;;;3.83;91.51
55289;BME280;41154;45.394;5.734;2023-02-28T13:32:34;97168.78;;;3.47;94.34
55289;BME280;41154;45.394;5.734;2023-02-28T13:37:34;97158.66;;;3.91;91.81
55289;BME280;41154;45.394;5.734;2023-02-28T13:40:31;97159.88;;;4.15;90.44
55289;BME280;41154;45.394;5.734;2023-02-28T13:43:02;97152.09;;;4.54;89.33
55289;BME280;41154;45.394;5.734;2023-02-28T13:45:29;97149.25;;;4.02;91.37
55289;BME280;41154;45.394;5.734;2023-02-28T13:48:18;97141.28;;;4.42;90.21
55289;BME280;41154;45.394;5.734;2023-02-28T13:50:45;97139.03;;;4.39;88.71
55289;BME280;41154;45.394;5.734;2023-02-28T13:55:53;97148.63;;;4.33;90.27
55289;BME280;41154;45.394;5.734;2023-02-28T14:08:58;97150.47;;;3.92;91.05
55289;BME280;41154;45.394;5.734;2023-02-28T14:14:00;97153.56;;;4.09;89.64
55289;BME280;41154;45.394;5.734;2023-02-28T14:16:43;97144.75;;;4.49;90.57
55289;BME280;41154;45.394;5.734;2023-02-28T14:19:13;97151.31;;;4.00;89.34
55289;BME280;41154;45.394;5.734;2023-02-28T14:22:05;97146.41;;;3.90;92.13
55289;BME280;41154;45.394;5.734;2023-02-28T14:32:43;97146.81;;;3.67;93.29
55289;BME280;41154;45.394;5.734;2023-02-28T14:35:14;97154.13;;;3.51;94.04
55289;BME280;41154;45.394;5.734;2023-02-28T14:37:46;97153.88;;;3.33;93.82
55289;BME280;41154;45.394;5.734;2023-02-28T14:40:34;97164.13;;;3.63;92.83
55289;BME280;41154;45.394;5.734;2023-02-28T14:43:02;97156.72;;;3.24;94.05
55289;BME280;41154;45.394;5.734;2023-02-28T14:45:34;97161.03;;;3.39;95.31
55289;BME280;41154;45.394;5.734;2023-02-28T14:48:02;97158.44;;;2.97;95.46
55289;BME280;41154;45.394;5.734;2023-02-28T14:50:34;97159.56;;;3.23;95.24
55289;BME280;41154;45.394;5.734;2023-02-28T14:53:01;97162.84;;;3.32;95.21
55289;BME280;41154;45.394;5.734;2023-02-28T14:55:34;97169.13;;;3.24;96.39
55289;BME280;41154;45.394;5.734;2023-02-28T14:58:03;97158.81;;;3.63;93.79
55289;BME280;41154;45.394;5.734;2023-02-28T15:00:35;97160.72;;;3.07;96.08
55289;BME280;41154;45.394;5.734;2023-02-28T15:03:21;97159.75;;;3.21;96.47
55289;BME280;41154;45.394;5.734;2023-02-28T15:05:58;97155.97;;;2.96;96.98
55289;BME280;41154;45.394;5.734;2023-02-28T15:08:28;97164.31;;;2.93;96.95
55289;BME280;41154;45.394;5.734;2023-02-28T15:11:00;97166.56;;;2.96;98.84
55289;BME280;41154;45.394;5.734;2023-02-28T15:13:43;97158.88;;;3.08;96.89
55289;BME280;41154;45.394;5.734;2023-02-28T15:16:15;97169.63;;;2.93;97.42
55289;BME280;41154;45.394;5.734;2023-02-28T15:21:13;97176.81;;;2.64;97.39